sensor_id;sensor_type;location;lat;lon;timestamp;pressure;altitude;pressure_sealevel;temperature;humidity
79639;BME280;69114;49.108;8.280;2023-05-21T00:02:02;100133.53;;;15.01;74.34
79639;BME280;69114;49.108;8.280;2023-05-21T00:04:28;100136.31;;;15.01;74.42
79639;BME280;69114;49.108;8.280;2023-05-21T00:06:56;100130.72;;;15.01;74.22
79639;BME280;69114;49.108;8.280;2023-05-21T00:09:22;100131.03;;;14.99;74.09
79639;BME280;69114;49.108;8.280;2023-05-21T00:11:48;100129.41;;;14.98;74.23
79639;BME280;69114;49.108;8.280;2023-05-21T00:14:13;100133.03;;;14.99;74.36
79639;BME280;69114;49.108;8.280;2023-05-21T00:16:38;100130.22;;;14.99;74.74
79639;BME280;69114;49.108;8.280;2023-05-21T00:19:04;100126.59;;;14.98;74.43
79639;BME280;69114;49.108;8.280;2023-05-21T00:21:30;100125.44;;;14.99;74.50
79639;BME280;69114;49.108;8.280;2023-05-21T00:23:55;100133.84;;;14.99;74.21
79639;BME280;69114;49.108;8.280;2023-05-21T00:26:21;100130.94;;;14.96;74.36
79639;BME280;69114;49.108;8.280;2023-05-21T00:28:48;100124.63;;;14.99;74.63
79639;BME280;69114;49.108;8.280;2023-05-21T00:31:14;100124.38;;;15.04;74.71
79639;BME280;69114;49.108;8.280;2023-05-21T00:33:40;100124.63;;;14.99;74.35
79639;BME280;69114;49.108;8.280;2023-05-21T00:36:06;100113.41;;;14.99;74.56
79639;BME280;69114;49.108;8.280;2023-05-21T00:38:31;100111.75;;;14.98;74.67
79639;BME280;69114;49.108;8.280;2023-05-21T00:41:03;100114.09;;;14.96;75.16
79639;BME280;69114;49.108;8.280;2023-05-21T00:43:28;100106.38;;;14.93;74.91
79639;BME280;69114;49.108;8.280;2023-05-21T00:45:54;100115.47;;;14.90;74.87
79639;BME280;69114;49.108;8.280;2023-05-21T00:48:21;100106.59;;;14.88;75.20
79639;BME280;69114;49.108;8.280;2023-05-21T00:50:47;100098.53;;;14.86;75.08
79639;BME280;69114;49.108;8.280;2023-05-21T00:53:16;100101.34;;;14.86;75.47
79639;BME280;69114;49.108;8.280;2023-05-21T00:55:43;100095.75;;;14.86;74.95
79639;BME280;69114;49.108;8.280;2023-05-21T00:58:09;100088.16;;;14.87;75.05
79639;BME280;69114;49.108;8.280;2023-05-21T01:00:35;100095.38;;;14.88;75.07
79639;BME280;69114;49.108;8.280;2023-05-21T01:03:01;100088.59;;;14.89;75.11
79639;BME280;69114;49.108;8.280;2023-05-21T01:05:27;100095.25;;;14.84;75.36
79639;BME280;69114;49.108;8.280;2023-05-21T01:07:54;100085.44;;;14.78;75.47
79639;BME280;69114;49.108;8.280;2023-05-21T01:10:21;100090.22;;;14.77;75.66
79639;BME280;69114;49.108;8.280;2023-05-21T01:12:47;100086.25;;;14.78;75.64
79639;BME280;69114;49.108;8.280;2023-05-21T01:15:13;100075.03;;;14.78;75.25
79639;BME280;69114;49.108;8.280;2023-05-21T01:17:39;100080.63;;;14.78;75.67
79639;BME280;69114;49.108;8.280;2023-05-21T01:20:06;100066.13;;;14.76;75.67
79639;BME280;69114;49.108;8.280;2023-05-21T01:22:34;100070.59;;;14.77;75.80
79639;BME280;69114;49.108;8.280;2023-05-21T01:25:02;100065.44;;;14.79;75.70
79639;BME280;69114;49.108;8.280;2023-05-21T01:27:27;100069.78;;;14.77;75.71
79639;BME280;69114;49.108;8.280;2023-05-21T01:29:53;100065.31;;;14.76;75.58
79639;BME280;69114;49.108;8.280;2023-05-21T01:39:54;100065.81;;;14.78;75.80
79639;BME280;69114;49.108;8.280;2023-05-21T01:42:22;100058.88;;;14.75;75.64
79639;BME280;69114;49.108;8.280;2023-05-21T01:44:51;100064.50;;;14.75;75.61
79639;BME280;69114;49.108;8.280;2023-05-21T01:47:21;100055.63;;;14.73;76.17
79639;BME280;69114;49.108;8.280;2023-05-21T01:49:48;100054.91;;;14.76;75.92
79639;BME280;69114;49.108;8.280;2023-05-21T01:52:14;100057.25;;;14.74;75.56
79639;BME280;69114;49.108;8.280;2023-05-21T01:54:39;100052.34;;;14.71;75.94
79639;BME280;69114;49.108;8.280;2023-05-21T01:57:05;100061.25;;;14.73;75.58
79639;BME280;69114;49.108;8.280;2023-05-21T01:59:30;100053.19;;;14.72;76.27
79639;BME280;69114;49.108;8.280;2023-05-21T02:01:56;100055.13;;;14.71;76.12
79639;BME280;69114;49.108;8.280;2023-05-21T02:04:21;100051.41;;;14.67;76.27
79639;BME280;69114;49.108;8.280;2023-05-21T02:06:46;100043.69;;;14.64;75.86
79639;BME280;69114;49.108;8.280;2023-05-21T02:09:12;100042.38;;;14.62;76.03
79639;BME280;69114;49.108;8.280;2023-05-21T02:11:37;100046.22;;;14.57;76.67
79639;BME280;69114;49.108;8.280;2023-05-21T02:14:02;100046.22;;;14.57;76.68
79639;BME280;69114;49.108;8.280;2023-05-21T02:16:28;100051.38;;;14.55;76.30
79639;BME280;69114;49.108;8.280;2023-05-21T02:18:53;100047.75;;;14.54;76.89
79639;BME280;69114;49.108;8.280;2023-05-21T02:21:21;100053.22;;;14.51;76.65
79639;BME280;69114;49.108;8.280;2023-05-21T02:23:46;100047.16;;;14.49;76.88
79639;BME280;69114;49.108;8.280;2023-05-21T02:26:12;100057.19;;;14.50;76.75
79639;BME280;69114;49.108;8.280;2023-05-21T02:28:37;100042.38;;;14.49;77.16
79639;BME280;69114;49.108;8.280;2023-05-21T02:31:03;100042.38;;;14.49;76.99
79639;BME280;69114;49.108;8.280;2023-05-21T02:33:28;100041.03;;;14.47;77.38
79639;BME280;69114;49.108;8.280;2023-05-21T02:35:53;100040.56;;;14.45;77.16
79639;BME280;69114;49.108;8.280;2023-05-21T02:38:19;100032.84;;;14.42;77.13
79639;BME280;69114;49.108;8.280;2023-05-21T02:40:48;100037.28;;;14.43;77.35
79639;BME280;69114;49.108;8.280;2023-05-21T02:43:14;100040.09;;;14.43;77.29
79639;BME280;69114;49.108;8.280;2023-05-21T02:45:39;100036.47;;;14.42;77.62
79639;BME280;69114;49.108;8.280;2023-05-21T02:48:05;100034.38;;;14.39;77.54
79639;BME280;69114;49.108;8.280;2023-05-21T02:50:30;100035.88;;;14.37;77.61
79639;BME280;69114;49.108;8.280;2023-05-21T02:52:55;100029.91;;;14.38;77.29
79639;BME280;69114;49.108;8.280;2023-05-21T02:55:21;100036.81;;;14.41;77.66
79639;BME280;69114;49.108;8.280;2023-05-21T02:57:46;100041.25;;;14.42;77.28
79639;BME280;69114;49.108;8.280;2023-05-21T03:00:12;100034.22;;;14.35;77.75
79639;BME280;69114;49.108;8.280;2023-05-21T03:02:38;100034.22;;;14.35;77.87
79639;BME280;69114;49.108;8.280;2023-05-21T03:05:04;100030.84;;;14.30;78.13
79639;BME280;69114;49.108;8.280;2023-05-21T03:07:29;100034.22;;;14.35;77.46
79639;BME280;69114;49.108;8.280;2023-05-21T03:09:55;100029.16;;;14.29;78.09
79639;BME280;69114;49.108;8.280;2023-05-21T03:12:21;100031.16;;;14.28;77.79
79639;BME280;69114;49.108;8.280;2023-05-21T03:14:47;100026.59;;;14.24;78.07
79639;BME280;69114;49.108;8.280;2023-05-21T03:17:13;100024.81;;;14.19;78.26
79639;BME280;69114;49.108;8.280;2023-05-21T03:19:40;100019.44;;;14.14;78.36
79639;BME280;69114;49.108;8.280;2023-05-21T03:22:06;100023.91;;;14.15;78.68
79639;BME280;69114;49.108;8.280;2023-05-21T03:24:31;100021.31;;;14.10;78.63
79639;BME280;69114;49.108;8.280;2023-05-21T03:27:00;100024.28;;;14.05;78.89
79639;BME280;69114;49.108;8.280;2023-05-21T03:29:26;100019.41;;;14.02;79.10
79639;BME280;69114;49.108;8.280;2023-05-21T03:31:52;100023.22;;;13.97;79.17
79639;BME280;69114;49.108;8.280;2023-05-21T03:34:18;100019.59;;;13.97;79.33
79639;BME280;69114;49.108;8.280;2023-05-21T03:36:44;100021.91;;;13.95;79.16
79639;BME280;69114;49.108;8.280;2023-05-21T03:39:10;100031.47;;;13.94;79.41
79639;BME280;69114;49.108;8.280;2023-05-21T03:41:35;100031.00;;;13.92;79.34
79639;BME280;69114;49.108;8.280;2023-05-21T03:44:01;100020.03;;;13.87;79.68
79639;BME280;69114;49.108;8.280;2023-05-21T03:46:26;100027.47;;;13.82;79.91
79639;BME280;69114;49.108;8.280;2023-05-21T03:48:52;100030.94;;;13.79;80.18
79639;BME280;69114;49.108;8.280;2023-05-21T03:51:17;100034.91;;;13.78;80.42
79639;BME280;69114;49.108;8.280;2023-05-21T03:53:44;100028.81;;;13.76;80.43
79639;BME280;69114;49.108;8.280;2023-05-21T03:56:09;100038.38;;;13.75;80.11
79639;BME280;69114;49.108;8.280;2023-05-21T03:58:35;100031.97;;;13.75;80.85
79639;BME280;69114;49.108;8.280;2023-05-21T04:01:00;100039.06;;;13.72;80.55
79639;BME280;69114;49.108;8.280;2023-05-21T04:03:27;100034.41;;;13.76;80.58
79639;BME280;69114;49.108;8.280;2023-05-21T04:05:52;100044.47;;;13.77;80.34
79639;BME280;69114;49.108;8.280;2023-05-21T04:08:17;100040.50;;;13.78;80.34
79639;BME280;69114;49.108;8.280;2023-05-21T04:10:43;100047.94;;;13.74;80.49
79639;BME280;69114;49.108;8.280;2023-05-21T04:13:08;100048.75;;;13.75;80.65
79639;BME280;69114;49.108;8.280;2023-05-21T04:15:33;100047.59;;;13.76;80.13
79639;BME280;69114;49.108;8.280;2023-05-21T04:17:59;100058.78;;;13.76;80.21
79639;BME280;69114;49.108;8.280;2023-05-21T04:20:25;100057.66;;;13.77;80.54
79639;BME280;69114;49.108;8.280;2023-05-21T04:22:50;100057.66;;;13.77;80.41
79639;BME280;69114;49.108;8.280;2023-05-21T04:25:16;100064.06;;;13.77;80.49
79639;BME280;69114;49.108;8.280;2023-05-21T04:27:41;100058.47;;;13.77;80.39
79639;BME280;69114;49.108;8.280;2023-05-21T04:30:07;100063.38;;;13.80;80.23
79639;BME280;69114;49.108;8.280;2023-05-21T04:32:33;100061.72;;;13.79;80.28
79639;BME280;69114;49.108;8.280;2023-05-21T04:34:59;100062.69;;;13.83;80.07
79639;BME280;69114;49.108;8.280;2023-05-21T04:37:26;100056.88;;;13.89;80.22
79639;BME280;69114;49.108;8.280;2023-05-21T04:39:53;100059.00;;;13.92;80.33
79639;BME280;69114;49.108;8.280;2023-05-21T04:42:18;100065.44;;;13.92;79.78
79639;BME280;69114;49.108;8.280;2023-05-21T04:44:48;100074.91;;;14.00;79.91
79639;BME280;69114;49.108;8.280;2023-05-21T04:47:13;100065.38;;;14.01;79.68
79639;BME280;69114;49.108;8.280;2023-05-21T04:49:39;100071.91;;;14.05;79.74
79639;BME280;69114;49.108;8.280;2023-05-21T04:52:04;100072.84;;;14.09;79.62
79639;BME280;69114;49.108;8.280;2023-05-21T04:54:29;100065.41;;;14.13;79.21
79639;BME280;69114;49.108;8.280;2023-05-21T04:56:55;100072.31;;;14.16;79.15
79639;BME280;69114;49.108;8.280;2023-05-21T04:59:20;100067.31;;;14.21;79.08
79639;BME280;69114;49.108;8.280;2023-05-21T05:01:46;100064.16;;;14.23;78.63
79639;BME280;69114;49.108;8.280;2023-05-21T05:04:12;100069.56;;;14.28;78.67
79639;BME280;69114;49.108;8.280;2023-05-21T05:06:37;100067.38;;;14.33;78.37
79639;BME280;69114;49.108;8.280;2023-05-21T05:09:03;100070.78;;;14.39;78.72
79639;BME280;69114;49.108;8.280;2023-05-21T05:11:29;100076.81;;;14.50;78.36
79639;BME280;69114;49.108;8.280;2023-05-21T05:13:54;100080.72;;;14.57;77.71
79639;BME280;69114;49.108;8.280;2023-05-21T05:16:19;100080.59;;;14.66;77.97
79639;BME280;69114;49.108;8.280;2023-05-21T05:18:50;100081.81;;;14.77;77.45
79639;BME280;69114;49.108;8.280;2023-05-21T05:21:16;100074.34;;;14.81;76.85
79639;BME280;69114;49.108;8.280;2023-05-21T05:23:41;100080.66;;;14.91;76.78
79639;BME280;69114;49.108;8.280;2023-05-21T05:26:07;100079.19;;;15.05;76.74
79639;BME280;69114;49.108;8.280;2023-05-21T05:28:32;100076.97;;;15.11;75.70
79639;BME280;69114;49.108;8.280;2023-05-21T05:30:57;100075.34;;;15.10;75.77
79639;BME280;69114;49.108;8.280;2023-05-21T05:33:23;100081.44;;;15.24;75.75
79639;BME280;69114;49.108;8.280;2023-05-21T05:35:48;100067.16;;;15.29;75.11
79639;BME280;69114;49.108;8.280;2023-05-21T05:38:14;100069.00;;;15.37;74.52
79639;BME280;69114;49.108;8.280;2023-05-21T05:40:39;100073.09;;;15.52;74.39
79639;BME280;69114;49.108;8.280;2023-05-21T05:43:04;100078.03;;;15.68;74.40
79639;BME280;69114;49.108;8.280;2023-05-21T05:45:30;100068.00;;;15.67;74.12
79639;BME280;69114;49.108;8.280;2023-05-21T05:47:55;100069.13;;;15.78;74.00
79639;BME280;69114;49.108;8.280;2023-05-21T05:50:20;100072.75;;;15.91;73.31
79639;BME280;69114;49.108;8.280;2023-05-21T05:52:46;100068.00;;;16.07;72.60
79639;BME280;69114;49.108;8.280;2023-05-21T05:55:11;100070.06;;;16.22;71.98
79639;BME280;69114;49.108;8.280;2023-05-21T05:57:36;100069.56;;;16.32;71.77
79639;BME280;69114;49.108;8.280;2023-05-21T06:00:05;100060.16;;;16.41;71.61
79639;BME280;69114;49.108;8.280;2023-05-21T06:02:31;100064.81;;;16.49;71.16
79639;BME280;69114;49.108;8.280;2023-05-21T06:04:56;100066.28;;;16.58;71.06
79639;BME280;69114;49.108;8.280;2023-05-21T06:07:22;100065.09;;;16.72;71.39
79639;BME280;69114;49.108;8.280;2023-05-21T06:09:48;100068.78;;;16.76;70.33
79639;BME280;69114;49.108;8.280;2023-05-21T06:12:13;100063.16;;;16.76;70.71
79639;BME280;69114;49.108;8.280;2023-05-21T06:14:40;100068.28;;;16.86;70.13
79639;BME280;69114;49.108;8.280;2023-05-21T06:17:06;100064.81;;;16.93;69.57
79639;BME280;69114;49.108;8.280;2023-05-21T06:19:31;100065.91;;;17.04;69.45
79639;BME280;69114;49.108;8.280;2023-05-21T06:21:56;100069.19;;;17.06;69.01
79639;BME280;69114;49.108;8.280;2023-05-21T06:24:22;100074.81;;;17.06;69.74
79639;BME280;69114;49.108;8.280;2023-05-21T06:26:47;100071.03;;;17.14;69.15
79639;BME280;69114;49.108;8.280;2023-05-21T06:29:12;100077.63;;;17.22;68.70
79639;BME280;69114;49.108;8.280;2023-05-21T06:31:38;100067.28;;;17.26;68.42
79639;BME280;69114;49.108;8.280;2023-05-21T06:34:03;100067.47;;;17.17;68.72
79639;BME280;69114;49.108;8.280;2023-05-21T06:36:28;100081.63;;;17.36;69.03
79639;BME280;69114;49.108;8.280;2023-05-21T06:38:55;100084.97;;;17.58;68.91
79639;BME280;69114;49.108;8.280;2023-05-21T06:41:21;100076.41;;;17.70;67.72
79639;BME280;69114;49.108;8.280;2023-05-21T06:43:46;100077.16;;;17.67;68.35
79639;BME280;69114;49.108;8.280;2023-05-21T06:46:12;100077.69;;;17.73;67.06
79639;BME280;69114;49.108;8.280;2023-05-21T06:48:37;100076.59;;;17.77;67.83
79639;BME280;69114;49.108;8.280;2023-05-21T06:51:03;100078.66;;;17.96;67.90
79639;BME280;69114;49.108;8.280;2023-05-21T06:53:28;100083.69;;;18.06;67.46
79639;BME280;69114;49.108;8.280;2023-05-21T06:55:53;100084.31;;;18.35;66.67
79639;BME280;69114;49.108;8.280;2023-05-21T06:58:19;100087.94;;;18.35;66.44
79639;BME280;69114;49.108;8.280;2023-05-21T07:00:46;100080.91;;;18.26;65.98
79639;BME280;69114;49.108;8.280;2023-05-21T07:03:11;100076.16;;;18.30;66.04
79639;BME280;69114;49.108;8.280;2023-05-21T07:05:37;100077.34;;;18.48;66.39
79639;BME280;69114;49.108;8.280;2023-05-21T07:08:02;100086.97;;;18.66;65.00
79639;BME280;69114;49.108;8.280;2023-05-21T07:10:27;100077.88;;;18.73;65.16
79639;BME280;69114;49.108;8.280;2023-05-21T07:12:53;100084.47;;;18.81;64.58
79639;BME280;69114;49.108;8.280;2023-05-21T07:15:18;100080.97;;;18.87;63.54
79639;BME280;69114;49.108;8.280;2023-05-21T07:17:43;100084.44;;;19.23;63.87
79639;BME280;69114;49.108;8.280;2023-05-21T07:20:09;100089.31;;;19.26;63.36
79639;BME280;69114;49.108;8.280;2023-05-21T07:22:38;100088.25;;;19.34;62.53
79639;BME280;69114;49.108;8.280;2023-05-21T07:25:05;100077.03;;;19.61;62.34
79639;BME280;69114;49.108;8.280;2023-05-21T07:27:30;100071.13;;;19.73;60.04
79639;BME280;69114;49.108;8.280;2023-05-21T07:29:56;100071.69;;;19.82;60.87
79639;BME280;69114;49.108;8.280;2023-05-21T07:32:21;100067.84;;;19.94;59.80
79639;BME280;69114;49.108;8.280;2023-05-21T07:34:47;100073.13;;;20.29;60.17
79639;BME280;69114;49.108;8.280;2023-05-21T07:37:12;100074.75;;;20.30;59.75
79639;BME280;69114;49.108;8.280;2023-05-21T07:39:38;100065.06;;;20.31;59.34
79639;BME280;69114;49.108;8.280;2023-05-21T07:42:04;100072.63;;;20.50;60.33
79639;BME280;69114;49.108;8.280;2023-05-21T07:44:29;100067.56;;;20.36;58.33
79639;BME280;69114;49.108;8.280;2023-05-21T07:46:56;100062.34;;;20.38;60.62
79639;BME280;69114;49.108;8.280;2023-05-21T07:49:21;100064.50;;;20.49;59.73
79639;BME280;69114;49.108;8.280;2023-05-21T07:51:47;100062.09;;;20.51;60.10
79639;BME280;69114;49.108;8.280;2023-05-21T07:54:12;100064.41;;;20.41;58.70
79639;BME280;69114;49.108;8.280;2023-05-21T07:56:37;100064.25;;;20.27;59.15
79639;BME280;69114;49.108;8.280;2023-05-21T07:59:03;100066.66;;;20.29;58.96
79639;BME280;69114;49.108;8.280;2023-05-21T08:01:28;100059.03;;;20.03;59.67
79639;BME280;69114;49.108;8.280;2023-05-21T08:03:54;100067.47;;;20.29;59.73
79639;BME280;69114;49.108;8.280;2023-05-21T08:06:19;100066.91;;;20.46;59.66
79639;BME280;69114;49.108;8.280;2023-05-21T08:08:46;100065.19;;;20.38;58.95
79639;BME280;69114;49.108;8.280;2023-05-21T08:11:12;100063.56;;;20.41;57.19
79639;BME280;69114;49.108;8.280;2023-05-21T08:13:37;100062.09;;;20.51;57.63
79639;BME280;69114;49.108;8.280;2023-05-21T08:16:02;100063.75;;;20.52;58.04
79639;BME280;69114;49.108;8.280;2023-05-21T08:18:28;100063.13;;;20.69;58.69
79639;BME280;69114;49.108;8.280;2023-05-21T08:20:53;100059.28;;;20.84;58.69
79639;BME280;69114;49.108;8.280;2023-05-21T08:23:19;100048.72;;;20.81;58.12
79639;BME280;69114;49.108;8.280;2023-05-21T08:25:45;100064.94;;;20.84;59.07
79639;BME280;69114;49.108;8.280;2023-05-21T08:28:10;100057.66;;;20.87;58.13
79639;BME280;69114;49.108;8.280;2023-05-21T08:30:35;100058.75;;;21.16;55.64
79639;BME280;69114;49.108;8.280;2023-05-21T08:33:01;100058.25;;;21.47;56.63
79639;BME280;69114;49.108;8.280;2023-05-21T08:35:26;100051.28;;;21.96;55.35
79639;BME280;69114;49.108;8.280;2023-05-21T08:37:52;100056.31;;;22.17;54.88
79639;BME280;69114;49.108;8.280;2023-05-21T08:40:17;100054.66;;;22.16;52.95
79639;BME280;69114;49.108;8.280;2023-05-21T08:42:49;100050.69;;;22.32;52.89
79639;BME280;69114;49.108;8.280;2023-05-21T08:45:22;100053.94;;;22.34;52.52
79639;BME280;69114;49.108;8.280;2023-05-21T08:47:54;100045.50;;;22.62;51.40
79639;BME280;69114;49.108;8.280;2023-05-21T08:50:26;100050.06;;;22.88;51.96
79639;BME280;69114;49.108;8.280;2023-05-21T08:52:51;100041.97;;;22.94;50.73
79639;BME280;69114;49.108;8.280;2023-05-21T08:55:19;100053.34;;;23.19;52.15
79639;BME280;69114;49.108;8.280;2023-05-21T08:57:46;100049.69;;;23.08;50.85
79639;BME280;69114;49.108;8.280;2023-05-21T09:00:12;100049.63;;;22.79;52.02
79639;BME280;69114;49.108;8.280;2023-05-21T09:02:38;100054.56;;;23.14;51.20
79639;BME280;69114;49.108;8.280;2023-05-21T09:05:08;100054.59;;;23.32;48.97
79639;BME280;69114;49.108;8.280;2023-05-21T09:07:56;100056.59;;;23.49;50.08
79639;BME280;69114;49.108;8.280;2023-05-21T09:10:30;100061.88;;;23.87;48.51
79639;BME280;69114;49.108;8.280;2023-05-21T09:12:58;100057.44;;;23.68;49.09
79639;BME280;69114;49.108;8.280;2023-05-21T09:15:24;100057.38;;;23.96;48.31
79639;BME280;69114;49.108;8.280;2023-05-21T09:17:49;100056.97;;;23.94;48.43
79639;BME280;69114;49.108;8.280;2023-05-21T09:20:15;100056.13;;;24.01;49.24
79639;BME280;69114;49.108;8.280;2023-05-21T09:22:47;100058.22;;;23.72;49.23
79639;BME280;69114;49.108;8.280;2023-05-21T09:25:15;100062.28;;;23.89;49.23
79639;BME280;69114;49.108;8.280;2023-05-21T09:27:41;100055.78;;;23.88;49.40
79639;BME280;69114;49.108;8.280;2023-05-21T09:30:11;100058.97;;;24.05;49.47
79639;BME280;69114;49.108;8.280;2023-05-21T09:32:38;100053.34;;;23.76;48.63
79639;BME280;69114;49.108;8.280;2023-05-21T09:35:07;100058.94;;;24.12;48.72
79639;BME280;69114;49.108;8.280;2023-05-21T09:37:43;100055.41;;;23.72;48.24
79639;BME280;69114;49.108;8.280;2023-05-21T09:40:11;100051.72;;;23.54;48.97
79639;BME280;69114;49.108;8.280;2023-05-21T09:42:49;100055.72;;;24.10;49.40
79639;BME280;69114;49.108;8.280;2023-05-21T09:45:23;100046.75;;;24.18;47.72
79639;BME280;69114;49.108;8.280;2023-05-21T09:47:49;100051.63;;;24.14;47.57
79639;BME280;69114;49.108;8.280;2023-05-21T09:50:22;100045.06;;;24.42;49.15
79639;BME280;69114;49.108;8.280;2023-05-21T09:52:48;100054.00;;;24.30;47.00
79639;BME280;69114;49.108;8.280;2023-05-21T09:55:15;100053.72;;;23.99;47.11
79639;BME280;69114;49.108;8.280;2023-05-21T09:57:42;100052.47;;;24.08;48.51
79639;BME280;69114;49.108;8.280;2023-05-21T10:00:09;100055.78;;;23.81;48.77
79639;BME280;69114;49.108;8.280;2023-05-21T10:02:44;100063.94;;;23.79;47.83
79639;BME280;69114;49.108;8.280;2023-05-21T10:05:11;100061.47;;;23.77;47.86
79639;BME280;69114;49.108;8.280;2023-05-21T10:07:40;100054.16;;;23.73;48.95
79639;BME280;69114;49.108;8.280;2023-05-21T10:10:06;100059.00;;;23.83;49.77
79639;BME280;69114;49.108;8.280;2023-05-21T10:12:35;100061.44;;;24.02;48.94
79639;BME280;69114;49.108;8.280;2023-05-21T10:15:03;100055.41;;;23.65;49.01
79639;BME280;69114;49.108;8.280;2023-05-21T10:17:29;100054.59;;;23.68;49.26
79639;BME280;69114;49.108;8.280;2023-05-21T10:19:55;100051.75;;;23.64;49.47
79639;BME280;69114;49.108;8.280;2023-05-21T10:22:24;100053.78;;;23.71;48.14
79639;BME280;69114;49.108;8.280;2023-05-21T10:24:50;100054.16;;;23.76;47.53
79639;BME280;69114;49.108;8.280;2023-05-21T10:27:16;100050.91;;;23.35;47.74
79639;BME280;69114;49.108;8.280;2023-05-21T10:29:43;100050.09;;;23.56;48.83
79639;BME280;69114;49.108;8.280;2023-05-21T10:32:12;100050.50;;;23.55;47.67
79639;BME280;69114;49.108;8.280;2023-05-21T10:34:39;100040.78;;;23.70;46.96
79639;BME280;69114;49.108;8.280;2023-05-21T10:37:07;100038.75;;;23.70;47.24
79639;BME280;69114;49.108;8.280;2023-05-21T10:39:33;100041.94;;;23.90;46.45
79639;BME280;69114;49.108;8.280;2023-05-21T10:42:15;100045.63;;;23.59;48.30
79639;BME280;69114;49.108;8.280;2023-05-21T10:48:09;100049.31;;;23.56;47.25
79639;BME280;69114;49.108;8.280;2023-05-21T10:59:44;100029.78;;;23.83;47.79
79639;BME280;69114;49.108;8.280;2023-05-21T11:02:12;100034.22;;;23.87;47.01
79639;BME280;69114;49.108;8.280;2023-05-21T11:04:39;100039.09;;;23.90;46.99
79639;BME280;69114;49.108;8.280;2023-05-21T11:07:07;100039.03;;;24.19;46.83
79639;BME280;69114;49.108;8.280;2023-05-21T11:09:32;100036.13;;;24.40;45.50
79639;BME280;69114;49.108;8.280;2023-05-21T11:11:58;100033.28;;;24.40;44.83
79639;BME280;69114;49.108;8.280;2023-05-21T11:17:08;100026.84;;;24.15;46.04
79639;BME280;69114;49.108;8.280;2023-05-21T11:19:44;100033.06;;;23.74;47.20
79639;BME280;69114;49.108;8.280;2023-05-21T11:22:22;100028.13;;;23.92;47.01
79639;BME280;69114;49.108;8.280;2023-05-21T11:24:49;100023.69;;;23.63;47.46
79639;BME280;69114;49.108;8.280;2023-05-21T11:29:56;100017.59;;;23.89;47.74
79639;BME280;69114;49.108;8.280;2023-05-21T11:32:21;100017.84;;;24.23;46.22
79639;BME280;69114;49.108;8.280;2023-05-21T11:34:48;100012.91;;;24.45;44.74
79639;BME280;69114;49.108;8.280;2023-05-21T11:39:43;100011.50;;;23.80;46.91
79639;BME280;69114;49.108;8.280;2023-05-21T11:42:09;100010.69;;;23.72;47.06
79639;BME280;69114;49.108;8.280;2023-05-21T11:44:46;100014.31;;;23.87;47.26
79639;BME280;69114;49.108;8.280;2023-05-21T11:47:16;100016.16;;;24.47;46.63
79639;BME280;69114;49.108;8.280;2023-05-21T11:49:42;100018.75;;;24.90;45.22
79639;BME280;69114;49.108;8.280;2023-05-21T11:52:09;100009.38;;;24.90;44.69
79639;BME280;69114;49.108;8.280;2023-05-21T11:54:43;100009.06;;;24.73;44.84
79639;BME280;69114;49.108;8.280;2023-05-21T11:57:11;100011.47;;;24.82;44.67
79639;BME280;69114;49.108;8.280;2023-05-21T11:59:40;100013.75;;;25.01;43.79
79639;BME280;69114;49.108;8.280;2023-05-21T12:02:06;100012.31;;;24.75;44.54
79639;BME280;69114;49.108;8.280;2023-05-21T12:04:36;100006.53;;;24.93;45.24
79639;BME280;69114;49.108;8.280;2023-05-21T12:07:05;100009.06;;;24.77;46.01
79639;BME280;69114;49.108;8.280;2023-05-21T12:09:39;100012.72;;;25.37;43.96
79639;BME280;69114;49.108;8.280;2023-05-21T12:12:07;100006.13;;;25.43;43.30
79639;BME280;69114;49.108;8.280;2023-05-21T12:14:34;100010.97;;;25.50;43.65
79639;BME280;69114;49.108;8.280;2023-05-21T12:16:59;100012.78;;;25.71;44.12
79639;BME280;69114;49.108;8.280;2023-05-21T12:19:25;100006.63;;;25.76;43.47
79639;BME280;69114;49.108;8.280;2023-05-21T12:21:50;100008.09;;;25.91;42.13
79639;BME280;69114;49.108;8.280;2023-05-21T12:24:16;100005.38;;;26.15;42.15
79639;BME280;69114;49.108;8.280;2023-05-21T12:26:42;100009.09;;;26.42;41.20
79639;BME280;69114;49.108;8.280;2023-05-21T12:29:10;100006.31;;;26.69;41.40
79639;BME280;69114;49.108;8.280;2023-05-21T12:31:46;100004.19;;;27.00;40.48
79639;BME280;69114;49.108;8.280;2023-05-21T12:34:13;100000.97;;;26.41;41.82
79639;BME280;69114;49.108;8.280;2023-05-21T12:36:42;100001.25;;;27.08;40.72
79639;BME280;69114;49.108;8.280;2023-05-21T12:39:10;99993.88;;;26.83;42.28
79639;BME280;69114;49.108;8.280;2023-05-21T12:41:36;99995.00;;;27.16;40.27
79639;BME280;69114;49.108;8.280;2023-05-21T12:44:01;100006.25;;;27.27;38.69
79639;BME280;69114;49.108;8.280;2023-05-21T12:46:27;99996.66;;;27.14;39.96
79639;BME280;69114;49.108;8.280;2023-05-21T12:48:52;99996.00;;;27.02;41.50
79639;BME280;69114;49.108;8.280;2023-05-21T12:51:19;100005.19;;;26.90;40.07
79639;BME280;69114;49.108;8.280;2023-05-21T12:53:45;100003.13;;;26.91;41.24
79639;BME280;69114;49.108;8.280;2023-05-21T12:56:11;99994.38;;;27.28;41.00
79639;BME280;69114;49.108;8.280;2023-05-21T12:58:36;99997.13;;;28.02;39.81
79639;BME280;69114;49.108;8.280;2023-05-21T13:01:09;99993.00;;;28.23;38.85
79639;BME280;69114;49.108;8.280;2023-05-21T13:03:40;99993.53;;;28.38;38.11
79639;BME280;69114;49.108;8.280;2023-05-21T13:06:06;100003.75;;;29.12;35.17
79639;BME280;69114;49.108;8.280;2023-05-21T13:08:32;99991.28;;;29.02;35.04
79639;BME280;69114;49.108;8.280;2023-05-21T13:11:03;100003.47;;;29.06;35.32
79639;BME280;69114;49.108;8.280;2023-05-21T13:13:29;99991.72;;;28.64;34.44
79639;BME280;69114;49.108;8.280;2023-05-21T13:15:55;99992.66;;;28.41;36.64